sensor_id;sensor_type;location;lat;lon;timestamp;temperature;humidity
54642;DHT22;40536;53.194;5.728;2023-06-26T00:00:29;21.20;99.90
54642;DHT22;40536;53.194;5.728;2023-06-26T00:02:54;21.10;99.90
54642;DHT22;40536;53.194;5.728;2023-06-26T00:05:20;21.10;99.90
54642;DHT22;40536;53.194;5.728;2023-06-26T00:07:46;21.10;99.90
54642;DHT22;40536;53.194;5.728;2023-06-26T00:10:11;21.10;99.90
54642;DHT22;40536;53.194;5.728;2023-06-26T00:12:37;21.10;99.90
54642;DHT22;40536;53.194;5.728;2023-06-26T00:15:03;21.10;99.90
54642;DHT22;40536;53.194;5.728;2023-06-26T00:17:29;21.00;99.90
54642;DHT22;40536;53.194;5.728;2023-06-26T00:19:54;21.00;99.90
54642;DHT22;40536;53.194;5.728;2023-06-26T00:22:21;20.90;99.90
54642;DHT22;40536;53.194;5.728;2023-06-26T00:24:47;20.90;99.90
54642;DHT22;40536;53.194;5.728;2023-06-26T00:27:12;20.90;99.90
54642;DHT22;40536;53.194;5.728;2023-06-26T00:29:38;20.90;99.90
54642;DHT22;40536;53.194;5.728;2023-06-26T00:32:04;20.90;99.90
54642;DHT22;40536;53.194;5.728;2023-06-26T00:34:30;20.90;99.90
54642;DHT22;40536;53.194;5.728;2023-06-26T00:36:56;20.90;99.90
54642;DHT22;40536;53.194;5.728;2023-06-26T00:39:22;20.90;99.90
54642;DHT22;40536;53.194;5.728;2023-06-26T00:41:48;20.90;99.90
54642;DHT22;40536;53.194;5.728;2023-06-26T00:44:13;20.90;99.90
54642;DHT22;40536;53.194;5.728;2023-06-26T00:46:39;20.90;99.90
54642;DHT22;40536;53.194;5.728;2023-06-26T00:49:08;20.90;99.90
54642;DHT22;40536;53.194;5.728;2023-06-26T00:51:33;20.90;99.90
54642;DHT22;40536;53.194;5.728;2023-06-26T00:53:59;20.90;99.90
54642;DHT22;40536;53.194;5.728;2023-06-26T00:56:26;20.90;99.90
54642;DHT22;40536;53.194;5.728;2023-06-26T00:58:53;20.90;99.90
54642;DHT22;40536;53.194;5.728;2023-06-26T01:01:18;20.90;99.90
54642;DHT22;40536;53.194;5.728;2023-06-26T01:03:50;20.90;99.90
54642;DHT22;40536;53.194;5.728;2023-06-26T01:06:23;20.90;99.90
54642;DHT22;40536;53.194;5.728;2023-06-26T01:08:49;20.90;99.90
54642;DHT22;40536;53.194;5.728;2023-06-26T01:11:15;20.90;99.90
54642;DHT22;40536;53.194;5.728;2023-06-26T01:13:42;20.90;99.90
54642;DHT22;40536;53.194;5.728;2023-06-26T01:16:09;20.90;99.90
54642;DHT22;40536;53.194;5.728;2023-06-26T01:18:37;20.90;99.90
54642;DHT22;40536;53.194;5.728;2023-06-26T01:21:09;20.90;99.90
54642;DHT22;40536;53.194;5.728;2023-06-26T01:26:22;21.00;99.90
54642;DHT22;40536;53.194;5.728;2023-06-26T01:28:50;21.00;99.90
54642;DHT22;40536;53.194;5.728;2023-06-26T01:31:17;21.00;99.90
54642;DHT22;40536;53.194;5.728;2023-06-26T01:33:43;21.00;99.90
54642;DHT22;40536;53.194;5.728;2023-06-26T01:36:10;21.00;99.90
54642;DHT22;40536;53.194;5.728;2023-06-26T01:38:36;21.00;99.90
54642;DHT22;40536;53.194;5.728;2023-06-26T01:41:03;21.00;99.90
54642;DHT22;40536;53.194;5.728;2023-06-26T01:46:27;21.00;99.90
54642;DHT22;40536;53.194;5.728;2023-06-26T01:52:07;20.90;99.90
54642;DHT22;40536;53.194;5.728;2023-06-26T01:54:39;20.90;99.90
54642;DHT22;40536;53.194;5.728;2023-06-26T01:57:08;20.90;99.90
54642;DHT22;40536;53.194;5.728;2023-06-26T01:59:35;20.90;99.90
54642;DHT22;40536;53.194;5.728;2023-06-26T02:02:02;20.90;99.90
54642;DHT22;40536;53.194;5.728;2023-06-26T02:04:28;20.90;99.90
54642;DHT22;40536;53.194;5.728;2023-06-26T02:06:53;20.90;99.90
54642;DHT22;40536;53.194;5.728;2023-06-26T02:09:20;20.90;99.90
54642;DHT22;40536;53.194;5.728;2023-06-26T02:11:45;20.80;99.90
54642;DHT22;40536;53.194;5.728;2023-06-26T02:14:11;20.80;99.90
54642;DHT22;40536;53.194;5.728;2023-06-26T02:16:37;20.80;99.90
54642;DHT22;40536;53.194;5.728;2023-06-26T02:19:03;20.80;99.90
54642;DHT22;40536;53.194;5.728;2023-06-26T02:21:29;20.70;99.90
54642;DHT22;40536;53.194;5.728;2023-06-26T02:23:54;20.70;99.90
54642;DHT22;40536;53.194;5.728;2023-06-26T02:26:20;20.70;99.90
54642;DHT22;40536;53.194;5.728;2023-06-26T02:28:46;20.70;99.90
54642;DHT22;40536;53.194;5.728;2023-06-26T02:31:11;20.70;99.90
54642;DHT22;40536;53.194;5.728;2023-06-26T02:33:37;20.70;99.90
54642;DHT22;40536;53.194;5.728;2023-06-26T02:36:03;20.70;99.90
54642;DHT22;40536;53.194;5.728;2023-06-26T02:38:29;20.60;99.90
54642;DHT22;40536;53.194;5.728;2023-06-26T02:40:54;20.60;99.90
54642;DHT22;40536;53.194;5.728;2023-06-26T02:43:20;20.60;99.90
54642;DHT22;40536;53.194;5.728;2023-06-26T02:45:45;20.50;99.90
54642;DHT22;40536;53.194;5.728;2023-06-26T02:48:11;20.50;99.90
54642;DHT22;40536;53.194;5.728;2023-06-26T02:50:37;20.50;99.90
54642;DHT22;40536;53.194;5.728;2023-06-26T02:53:02;20.50;99.90
54642;DHT22;40536;53.194;5.728;2023-06-26T02:55:28;20.40;99.90
54642;DHT22;40536;53.194;5.728;2023-06-26T02:57:53;20.40;99.90
54642;DHT22;40536;53.194;5.728;2023-06-26T03:00:19;20.40;99.90
54642;DHT22;40536;53.194;5.728;2023-06-26T03:02:45;20.40;99.90
54642;DHT22;40536;53.194;5.728;2023-06-26T03:05:10;20.30;99.90
54642;DHT22;40536;53.194;5.728;2023-06-26T03:07:38;20.30;99.90
54642;DHT22;40536;53.194;5.728;2023-06-26T03:10:04;20.30;99.90
54642;DHT22;40536;53.194;5.728;2023-06-26T03:12:30;20.30;99.90
54642;DHT22;40536;53.194;5.728;2023-06-26T03:14:56;20.30;99.90
54642;DHT22;40536;53.194;5.728;2023-06-26T03:17:22;20.30;99.90
54642;DHT22;40536;53.194;5.728;2023-06-26T03:19:47;20.30;99.90
54642;DHT22;40536;53.194;5.728;2023-06-26T03:22:13;20.30;99.90
54642;DHT22;40536;53.194;5.728;2023-06-26T03:24:39;20.30;99.90
54642;DHT22;40536;53.194;5.728;2023-06-26T03:27:05;20.30;99.90
54642;DHT22;40536;53.194;5.728;2023-06-26T03:29:30;20.30;99.90
54642;DHT22;40536;53.194;5.728;2023-06-26T03:31:56;20.30;99.90
54642;DHT22;40536;53.194;5.728;2023-06-26T03:34:22;20.30;99.90
54642;DHT22;40536;53.194;5.728;2023-06-26T03:36:47;20.30;99.90
54642;DHT22;40536;53.194;5.728;2023-06-26T03:39:13;20.30;99.90
54642;DHT22;40536;53.194;5.728;2023-06-26T03:41:39;20.30;99.90
54642;DHT22;40536;53.194;5.728;2023-06-26T03:44:04;20.20;99.90
54642;DHT22;40536;53.194;5.728;2023-06-26T03:46:30;20.20;99.90
54642;DHT22;40536;53.194;5.728;2023-06-26T03:48:56;20.20;99.90
54642;DHT22;40536;53.194;5.728;2023-06-26T03:51:21;20.20;99.90
54642;DHT22;40536;53.194;5.728;2023-06-26T03:53:47;20.20;99.90
54642;DHT22;40536;53.194;5.728;2023-06-26T03:56:13;20.20;99.90
54642;DHT22;40536;53.194;5.728;2023-06-26T03:58:39;20.20;99.90
54642;DHT22;40536;53.194;5.728;2023-06-26T04:01:05;20.10;99.90
54642;DHT22;40536;53.194;5.728;2023-06-26T04:03:31;20.10;99.90
54642;DHT22;40536;53.194;5.728;2023-06-26T04:05:57;20.10;99.90
54642;DHT22;40536;53.194;5.728;2023-06-26T04:08:24;20.00;99.90
54642;DHT22;40536;53.194;5.728;2023-06-26T04:10:52;20.00;99.90
54642;DHT22;40536;53.194;5.728;2023-06-26T04:13:17;19.90;99.90
54642;DHT22;40536;53.194;5.728;2023-06-26T04:15:43;19.80;99.90
54642;DHT22;40536;53.194;5.728;2023-06-26T04:18:09;19.80;99.90
54642;DHT22;40536;53.194;5.728;2023-06-26T04:20:39;19.70;99.90
54642;DHT22;40536;53.194;5.728;2023-06-26T04:23:06;19.70;99.90
54642;DHT22;40536;53.194;5.728;2023-06-26T04:25:31;19.60;99.90
54642;DHT22;40536;53.194;5.728;2023-06-26T04:27:57;19.60;99.90
54642;DHT22;40536;53.194;5.728;2023-06-26T04:30:22;19.60;99.90
54642;DHT22;40536;53.194;5.728;2023-06-26T04:32:48;19.60;99.90
54642;DHT22;40536;53.194;5.728;2023-06-26T04:35:14;19.60;99.90
54642;DHT22;40536;53.194;5.728;2023-06-26T04:37:39;19.60;99.90
54642;DHT22;40536;53.194;5.728;2023-06-26T04:40:06;19.50;99.90
54642;DHT22;40536;53.194;5.728;2023-06-26T04:42:32;19.50;99.90
54642;DHT22;40536;53.194;5.728;2023-06-26T04:44:58;19.50;99.90
54642;DHT22;40536;53.194;5.728;2023-06-26T04:47:23;19.40;99.90
54642;DHT22;40536;53.194;5.728;2023-06-26T04:49:49;19.40;99.90
54642;DHT22;40536;53.194;5.728;2023-06-26T04:52:15;19.40;99.90
54642;DHT22;40536;53.194;5.728;2023-06-26T04:54:41;19.30;99.90
54642;DHT22;40536;53.194;5.728;2023-06-26T04:57:07;19.30;99.90
54642;DHT22;40536;53.194;5.728;2023-06-26T04:59:34;19.30;99.90
54642;DHT22;40536;53.194;5.728;2023-06-26T05:01:59;19.20;99.90
54642;DHT22;40536;53.194;5.728;2023-06-26T05:04:25;19.20;99.90
54642;DHT22;40536;53.194;5.728;2023-06-26T05:06:51;19.10;99.90
54642;DHT22;40536;53.194;5.728;2023-06-26T05:09:16;19.10;99.90
54642;DHT22;40536;53.194;5.728;2023-06-26T05:11:42;19.10;99.90
54642;DHT22;40536;53.194;5.728;2023-06-26T05:14:08;19.10;99.90
54642;DHT22;40536;53.194;5.728;2023-06-26T05:16:34;19.10;99.90
54642;DHT22;40536;53.194;5.728;2023-06-26T05:19:00;19.10;99.90
54642;DHT22;40536;53.194;5.728;2023-06-26T05:21:26;19.10;99.90
54642;DHT22;40536;53.194;5.728;2023-06-26T05:23:54;19.20;99.90
54642;DHT22;40536;53.194;5.728;2023-06-26T05:26:21;19.30;99.90
54642;DHT22;40536;53.194;5.728;2023-06-26T05:28:47;19.40;99.90
54642;DHT22;40536;53.194;5.728;2023-06-26T05:31:15;19.70;99.90
54642;DHT22;40536;53.194;5.728;2023-06-26T05:33:43;19.90;99.90
54642;DHT22;40536;53.194;5.728;2023-06-26T05:36:09;20.20;99.90
54642;DHT22;40536;53.194;5.728;2023-06-26T05:38:35;20.30;99.90
54642;DHT22;40536;53.194;5.728;2023-06-26T05:41:01;20.40;99.90
54642;DHT22;40536;53.194;5.728;2023-06-26T05:43:27;20.60;99.90
54642;DHT22;40536;53.194;5.728;2023-06-26T05:45:53;20.80;99.90
54642;DHT22;40536;53.194;5.728;2023-06-26T05:48:18;21.00;99.90
54642;DHT22;40536;53.194;5.728;2023-06-26T05:50:44;21.20;99.90
54642;DHT22;40536;53.194;5.728;2023-06-26T05:53:10;21.40;99.90
54642;DHT22;40536;53.194;5.728;2023-06-26T05:55:36;21.70;99.90
54642;DHT22;40536;53.194;5.728;2023-06-26T05:58:03;21.80;99.90
54642;DHT22;40536;53.194;5.728;2023-06-26T06:00:29;21.90;99.90
54642;DHT22;40536;53.194;5.728;2023-06-26T06:02:55;22.00;99.90
54642;DHT22;40536;53.194;5.728;2023-06-26T06:05:21;22.00;99.90
54642;DHT22;40536;53.194;5.728;2023-06-26T06:07:48;22.00;99.90
54642;DHT22;40536;53.194;5.728;2023-06-26T06:10:14;22.00;99.90
54642;DHT22;40536;53.194;5.728;2023-06-26T06:12:39;22.30;99.90
54642;DHT22;40536;53.194;5.728;2023-06-26T06:15:06;22.40;99.90
54642;DHT22;40536;53.194;5.728;2023-06-26T06:17:32;22.40;99.90
54642;DHT22;40536;53.194;5.728;2023-06-26T06:19:57;22.40;99.90
54642;DHT22;40536;53.194;5.728;2023-06-26T06:22:23;22.40;99.90
54642;DHT22;40536;53.194;5.728;2023-06-26T06:24:49;22.40;99.90
54642;DHT22;40536;53.194;5.728;2023-06-26T06:27:16;22.40;99.90
54642;DHT22;40536;53.194;5.728;2023-06-26T06:29:41;22.70;99.90
54642;DHT22;40536;53.194;5.728;2023-06-26T06:32:08;22.80;99.90
54642;DHT22;40536;53.194;5.728;2023-06-26T06:34:33;23.00;99.90
54642;DHT22;40536;53.194;5.728;2023-06-26T06:36:59;22.90;99.90
54642;DHT22;40536;53.194;5.728;2023-06-26T06:39:25;23.00;99.90
54642;DHT22;40536;53.194;5.728;2023-06-26T06:41:51;23.10;99.90
54642;DHT22;40536;53.194;5.728;2023-06-26T06:44:17;23.30;99.90
54642;DHT22;40536;53.194;5.728;2023-06-26T06:46:42;23.60;99.90
54642;DHT22;40536;53.194;5.728;2023-06-26T06:49:09;23.90;99.90
54642;DHT22;40536;53.194;5.728;2023-06-26T06:51:34;24.20;99.90
54642;DHT22;40536;53.194;5.728;2023-06-26T06:54:00;24.30;99.90
54642;DHT22;40536;53.194;5.728;2023-06-26T06:56:26;24.30;99.90
54642;DHT22;40536;53.194;5.728;2023-06-26T06:58:53;24.40;99.90
54642;DHT22;40536;53.194;5.728;2023-06-26T07:01:19;24.30;99.90
54642;DHT22;40536;53.194;5.728;2023-06-26T07:03:44;24.20;99.90
54642;DHT22;40536;53.194;5.728;2023-06-26T07:06:10;24.10;99.90
54642;DHT22;40536;53.194;5.728;2023-06-26T07:08:35;24.00;99.90
54642;DHT22;40536;53.194;5.728;2023-06-26T07:11:01;24.10;99.90
54642;DHT22;40536;53.194;5.728;2023-06-26T07:13:27;24.40;99.90
54642;DHT22;40536;53.194;5.728;2023-06-26T07:15:52;24.40;99.90
54642;DHT22;40536;53.194;5.728;2023-06-26T07:18:18;24.20;99.90
54642;DHT22;40536;53.194;5.728;2023-06-26T07:20:43;23.50;99.90
54642;DHT22;40536;53.194;5.728;2023-06-26T07:23:09;23.00;99.90
54642;DHT22;40536;53.194;5.728;2023-06-26T07:25:35;22.40;99.90
54642;DHT22;40536;53.194;5.728;2023-06-26T07:28:01;22.20;99.90
54642;DHT22;40536;53.194;5.728;2023-06-26T07:30:27;22.40;99.90
54642;DHT22;40536;53.194;5.728;2023-06-26T07:32:53;22.50;99.90
54642;DHT22;40536;53.194;5.728;2023-06-26T07:35:18;22.70;99.90
54642;DHT22;40536;53.194;5.728;2023-06-26T07:37:46;23.20;99.90
54642;DHT22;40536;53.194;5.728;2023-06-26T07:40:13;23.50;99.90
54642;DHT22;40536;53.194;5.728;2023-06-26T07:42:39;23.00;99.90
54642;DHT22;40536;53.194;5.728;2023-06-26T07:45:06;22.70;99.90
54642;DHT22;40536;53.194;5.728;2023-06-26T07:47:37;23.00;99.90
54642;DHT22;40536;53.194;5.728;2023-06-26T07:50:02;23.20;99.90
54642;DHT22;40536;53.194;5.728;2023-06-26T07:52:28;22.70;99.90
54642;DHT22;40536;53.194;5.728;2023-06-26T07:54:55;22.80;99.90
54642;DHT22;40536;53.194;5.728;2023-06-26T07:57:22;23.40;99.90
54642;DHT22;40536;53.194;5.728;2023-06-26T07:59:48;23.80;99.90
54642;DHT22;40536;53.194;5.728;2023-06-26T08:02:13;24.40;99.90
54642;DHT22;40536;53.194;5.728;2023-06-26T08:04:39;24.60;99.90
54642;DHT22;40536;53.194;5.728;2023-06-26T08:07:05;24.70;99.90
54642;DHT22;40536;53.194;5.728;2023-06-26T08:09:31;24.90;99.90
54642;DHT22;40536;53.194;5.728;2023-06-26T08:11:57;25.00;99.90
54642;DHT22;40536;53.194;5.728;2023-06-26T08:14:23;24.50;99.90
54642;DHT22;40536;53.194;5.728;2023-06-26T08:16:50;24.00;99.90
54642;DHT22;40536;53.194;5.728;2023-06-26T08:19:16;24.20;99.90
54642;DHT22;40536;53.194;5.728;2023-06-26T08:21:43;24.60;99.90
54642;DHT22;40536;53.194;5.728;2023-06-26T08:24:09;24.90;99.90
54642;DHT22;40536;53.194;5.728;2023-06-26T08:26:35;24.80;99.90
54642;DHT22;40536;53.194;5.728;2023-06-26T08:29:01;24.40;99.90
54642;DHT22;40536;53.194;5.728;2023-06-26T08:31:37;24.00;99.90
54642;DHT22;40536;53.194;5.728;2023-06-26T08:34:03;24.00;99.90
54642;DHT22;40536;53.194;5.728;2023-06-26T08:36:29;24.60;99.90
54642;DHT22;40536;53.194;5.728;2023-06-26T08:38:55;25.20;99.90
54642;DHT22;40536;53.194;5.728;2023-06-26T08:41:21;25.40;99.90
54642;DHT22;40536;53.194;5.728;2023-06-26T08:43:47;25.30;99.90
54642;DHT22;40536;53.194;5.728;2023-06-26T08:46:14;25.20;99.90
54642;DHT22;40536;53.194;5.728;2023-06-26T08:48:45;25.60;99.90
54642;DHT22;40536;53.194;5.728;2023-06-26T08:51:13;26.20;99.90
54642;DHT22;40536;53.194;5.728;2023-06-26T08:53:57;26.40;99.90
54642;DHT22;40536;53.194;5.728;2023-06-26T08:56:25;26.70;99.90
54642;DHT22;40536;53.194;5.728;2023-06-26T08:58:53;27.10;99.90
54642;DHT22;40536;53.194;5.728;2023-06-26T09:01:20;27.30;99.90
54642;DHT22;40536;53.194;5.728;2023-06-26T09:03:46;27.50;99.90
54642;DHT22;40536;53.194;5.728;2023-06-26T09:06:12;27.40;99.90
54642;DHT22;40536;53.194;5.728;2023-06-26T09:08:37;27.20;99.90
54642;DHT22;40536;53.194;5.728;2023-06-26T09:11:03;26.80;99.90
54642;DHT22;40536;53.194;5.728;2023-06-26T09:13:30;27.10;99.90
54642;DHT22;40536;53.194;5.728;2023-06-26T09:15:55;27.50;99.90
54642;DHT22;40536;53.194;5.728;2023-06-26T09:18:21;27.80;99.90
54642;DHT22;40536;53.194;5.728;2023-06-26T09:20:50;28.10;99.90
54642;DHT22;40536;53.194;5.728;2023-06-26T09:23:16;28.20;99.90
54642;DHT22;40536;53.194;5.728;2023-06-26T09:25:42;27.60;99.90
54642;DHT22;40536;53.194;5.728;2023-06-26T09:28:10;26.50;99.90
54642;DHT22;40536;53.194;5.728;2023-06-26T09:30:36;25.70;99.90
54642;DHT22;40536;53.194;5.728;2023-06-26T09:33:18;25.60;99.90
54642;DHT22;40536;53.194;5.728;2023-06-26T09:35:45;25.30;99.90
54642;DHT22;40536;53.194;5.728;2023-06-26T09:38:12;24.80;99.90
54642;DHT22;40536;53.194;5.728;2023-06-26T09:40:39;25.00;99.90
54642;DHT22;40536;53.194;5.728;2023-06-26T09:43:09;24.90;99.90
54642;DHT22;40536;53.194;5.728;2023-06-26T09:45:40;24.80;99.90
54642;DHT22;40536;53.194;5.728;2023-06-26T09:48:06;25.00;99.90
54642;DHT22;40536;53.194;5.728;2023-06-26T09:50:37;24.80;99.90
54642;DHT22;40536;53.194;5.728;2023-06-26T09:53:13;25.70;99.90
54642;DHT22;40536;53.194;5.728;2023-06-26T09:55:39;26.80;99.90
54642;DHT22;40536;53.194;5.728;2023-06-26T09:58:13;26.70;99.90
54642;DHT22;40536;53.194;5.728;2023-06-26T10:00:41;26.20;99.90
54642;DHT22;40536;53.194;5.728;2023-06-26T10:03:08;25.50;99.90
54642;DHT22;40536;53.194;5.728;2023-06-26T10:05:33;24.80;99.90
54642;DHT22;40536;53.194;5.728;2023-06-26T10:08:01;24.70;99.90
54642;DHT22;40536;53.194;5.728;2023-06-26T10:10:28;24.50;99.90
54642;DHT22;40536;53.194;5.728;2023-06-26T10:13:01;25.00;99.90
54642;DHT22;40536;53.194;5.728;2023-06-26T10:15:30;25.80;99.90
54642;DHT22;40536;53.194;5.728;2023-06-26T10:17:56;26.50;99.90
54642;DHT22;40536;53.194;5.728;2023-06-26T10:20:23;26.90;99.90
54642;DHT22;40536;53.194;5.728;2023-06-26T10:22:50;26.50;99.90
54642;DHT22;40536;53.194;5.728;2023-06-26T10:25:19;27.00;99.90
54642;DHT22;40536;53.194;5.728;2023-06-26T10:27:57;27.50;99.90
54642;DHT22;40536;53.194;5.728;2023-06-26T10:30:27;26.90;99.90
54642;DHT22;40536;53.194;5.728;2023-06-26T10:32:54;26.60;99.90
54642;DHT22;40536;53.194;5.728;2023-06-26T10:35:20;26.30;99.90
54642;DHT22;40536;53.194;5.728;2023-06-26T10:37:49;26.60;99.90
54642;DHT22;40536;53.194;5.728;2023-06-26T10:40:23;26.90;99.90
54642;DHT22;40536;53.194;5.728;2023-06-26T10:42:50;26.70;99.90
54642;DHT22;40536;53.194;5.728;2023-06-26T10:45:19;26.80;99.60
54642;DHT22;40536;53.194;5.728;2023-06-26T10:47:49;27.10;99.40
54642;DHT22;40536;53.194;5.728;2023-06-26T10:50:18;26.90;99.60
54642;DHT22;40536;53.194;5.728;2023-06-26T10:55:32;26.00;99.90
54642;DHT22;40536;53.194;5.728;2023-06-26T10:58:01;25.80;99.90
54642;DHT22;40536;53.194;5.728;2023-06-26T11:00:28;26.20;99.90
54642;DHT22;40536;53.194;5.728;2023-06-26T11:02:53;26.20;99.90
54642;DHT22;40536;53.194;5.728;2023-06-26T11:05:33;26.60;99.90
54642;DHT22;40536;53.194;5.728;2023-06-26T11:08:09;26.90;99.90
54642;DHT22;40536;53.194;5.728;2023-06-26T11:10:51;26.90;99.90
54642;DHT22;40536;53.194;5.728;2023-06-26T11:13:19;27.20;99.90
54642;DHT22;40536;53.194;5.728;2023-06-26T11:15:45;26.70;99.90
54642;DHT22;40536;53.194;5.728;2023-06-26T11:18:12;26.70;99.90
54642;DHT22;40536;53.194;5.728;2023-06-26T11:20:38;26.50;99.90
54642;DHT22;40536;53.194;5.728;2023-06-26T11:23:04;25.40;99.90
54642;DHT22;40536;53.194;5.728;2023-06-26T11:25:34;24.50;99.90
54642;DHT22;40536;53.194;5.728;2023-06-26T11:28:01;24.20;99.90
54642;DHT22;40536;53.194;5.728;2023-06-26T11:30:27;24.60;99.90
54642;DHT22;40536;53.194;5.728;2023-06-26T11:32:52;25.40;99.90
54642;DHT22;40536;53.194;5.728;2023-06-26T11:35:24;26.20;99.90
54642;DHT22;40536;53.194;5.728;2023-06-26T11:38:00;26.80;99.90
54642;DHT22;40536;53.194;5.728;2023-06-26T11:40:31;26.90;99.90
54642;DHT22;40536;53.194;5.728;2023-06-26T11:43:00;26.70;99.90
54642;DHT22;40536;53.194;5.728;2023-06-26T11:45:33;26.20;99.90
54642;DHT22;40536;53.194;5.728;2023-06-26T11:48:00;25.50;99.90
54642;DHT22;40536;53.194;5.728;2023-06-26T11:50:26;25.00;99.90
54642;DHT22;40536;53.194;5.728;2023-06-26T11:52:56;25.20;99.90
54642;DHT22;40536;53.194;5.728;2023-06-26T11:55:23;25.10;99.90
54642;DHT22;40536;53.194;5.728;2023-06-26T11:57:53;24.70;99.90
54642;DHT22;40536;53.194;5.728;2023-06-26T12:00:19;24.70;99.90
54642;DHT22;40536;53.194;5.728;2023-06-26T12:02:46;24.80;99.90
54642;DHT22;40536;53.194;5.728;2023-06-26T12:05:16;25.00;99.90
54642;DHT22;40536;53.194;5.728;2023-06-26T12:07:43;24.80;99.90
54642;DHT22;40536;53.194;5.728;2023-06-26T12:10:11;24.40;99.90
54642;DHT22;40536;53.194;5.728;2023-06-26T12:12:38;24.50;99.90
54642;DHT22;40536;53.194;5.728;2023-06-26T12:15:06;25.00;99.90
54642;DHT22;40536;53.194;5.728;2023-06-26T12:17:32;25.50;99.90
54642;DHT22;40536;53.194;5.728;2023-06-26T12:19:57;25.90;99.90
54642;DHT22;40536;53.194;5.728;2023-06-26T12:22:23;26.00;99.90
54642;DHT22;40536;53.194;5.728;2023-06-26T12:24:49;26.20;99.90
54642;DHT22;40536;53.194;5.728;2023-06-26T12:27:17;26.00;99.90
54642;DHT22;40536;53.194;5.728;2023-06-26T12:29:52;25.40;99.90
54642;DHT22;40536;53.194;5.728;2023-06-26T12:32:19;25.00;99.90
54642;DHT22;40536;53.194;5.728;2023-06-26T12:34:48;25.00;99.90
54642;DHT22;40536;53.194;5.728;2023-06-26T12:37:14;24.60;99.90
54642;DHT22;40536;53.194;5.728;2023-06-26T12:39:47;24.30;99.90
54642;DHT22;40536;53.194;5.728;2023-06-26T12:42:33;24.30;99.90
54642;DHT22;40536;53.194;5.728;2023-06-26T12:44:59;24.50;99.90
54642;DHT22;40536;53.194;5.728;2023-06-26T12:47:28;24.40;99.90
54642;DHT22;40536;53.194;5.728;2023-06-26T12:49:56;24.70;99.90
54642;DHT22;40536;53.194;5.728;2023-06-26T12:52:23;24.70;99.90
54642;DHT22;40536;53.194;5.728;2023-06-26T12:54:53;24.70;99.90
54642;DHT22;40536;53.194;5.728;2023-06-26T12:57:20;24.70;99.90
54642;DHT22;40536;53.194;5.728;2023-06-26T12:59:45;24.90;99.90
54642;DHT22;40536;53.194;5.728;2023-06-26T13:02:11;25.10;99.90
54642;DHT22;40536;53.194;5.728;2023-06-26T13:04:37;24.90;99.90
54642;DHT22;40536;53.194;5.728;2023-06-26T13:07:07;24.70;99.90
54642;DHT22;40536;53.194;5.728;2023-06-26T13:09:33;24.30;99.90
54642;DHT22;40536;53.194;5.728;2023-06-26T13:12:00;24.20;99.90
54642;DHT22;40536;53.194;5.728;2023-06-26T13:14:25;23.90;99.90
54642;DHT22;40536;53.194;5.728;2023-06-26T13:16:51;23.80;99.90
54642;DHT22;40536;53.194;5.728;2023-06-26T13:19:17;23.50;99.90
54642;DHT22;40536;53.194;5.728;2023-06-26T13:21:43;23.40;99.90
54642;DHT22;40536;53.194;5.728;2023-06-26T13:24:08;23.40;99.90
54642;DHT22;40536;53.194;5.728;2023-06-26T13:26:34;23.40;99.90
54642;DHT22;40536;53.194;5.728;2023-06-26T13:29:00;23.10;99.90
54642;DHT22;40536;53.194;5.728;2023-06-26T13:31:26;22.90;99.90
54642;DHT22;40536;53.194;5.728;2023-06-26T13:33:52;23.20;99.90
54642;DHT22;40536;53.194;5.728;2023-06-26T13:36:18;23.50;99.90
54642;DHT22;40536;53.194;5.728;2023-06-26T13:38:44;24.00;99.90
54642;DHT22;40536;53.194;5.728;2023-06-26T13:41:10;24.30;99.90
54642;DHT22;40536;53.194;5.728;2023-06-26T13:43:36;24.20;99.90
54642;DHT22;40536;53.194;5.728;2023-06-26T13:46:01;24.20;99.90
54642;DHT22;40536;53.194;5.728;2023-06-26T13:48:28;24.00;99.90
54642;DHT22;40536;53.194;5.728;2023-06-26T13:50:54;23.90;99.90
54642;DHT22;40536;53.194;5.728;2023-06-26T13:53:21;23.70;99.90
54642;DHT22;40536;53.194;5.728;2023-06-26T13:55:48;23.70;99.90
54642;DHT22;40536;53.194;5.728;2023-06-26T13:58:13;23.70;99.90
54642;DHT22;40536;53.194;5.728;2023-06-26T14:00:39;23.90;99.90
54642;DHT22;40536;53.194;5.728;2023-06-26T14:03:07;24.00;99.90
54642;DHT22;40536;53.194;5.728;2023-06-26T14:05:33;23.80;99.90
54642;DHT22;40536;53.194;5.728;2023-06-26T14:08:02;23.60;99.90
54642;DHT22;40536;53.194;5.728;2023-06-26T14:10:28;23.50;99.90
54642;DHT22;40536;53.194;5.728;2023-06-26T14:12:53;23.70;99.90
54642;DHT22;40536;53.194;5.728;2023-06-26T14:15:19;23.70;99.90
54642;DHT22;40536;53.194;5.728;2023-06-26T14:17:45;23.50;99.90
54642;DHT22;40536;53.194;5.728;2023-06-26T14:20:11;23.20;99.90
54642;DHT22;40536;53.194;5.728;2023-06-26T14:22:40;22.70;99.90
54642;DHT22;40536;53.194;5.728;2023-06-26T14:25:07;22.60;99.90
54642;DHT22;40536;53.194;5.728;2023-06-26T14:27:32;22.60;99.90
54642;DHT22;40536;53.194;5.728;2023-06-26T14:29:58;22.60;99.90
54642;DHT22;40536;53.194;5.728;2023-06-26T14:32:24;22.60;99.90
54642;DHT22;40536;53.194;5.728;2023-06-26T14:34:49;22.50;99.90
54642;DHT22;40536;53.194;5.728;2023-06-26T14:37:15;22.30;99.90
54642;DHT22;40536;53.194;5.728;2023-06-26T14:39:42;22.30;99.90
54642;DHT22;40536;53.194;5.728;2023-06-26T14:42:07;22.20;99.90
54642;DHT22;40536;53.194;5.728;2023-06-26T14:44:33;22.40;99.90
54642;DHT22;40536;53.194;5.728;2023-06-26T14:46:59;22.50;99.90
54642;DHT22;40536;53.194;5.728;2023-06-26T14:49:24;22.70;99.90
54642;DHT22;40536;53.194;5.728;2023-06-26T14:51:50;22.70;99.90
54642;DHT22;40536;53.194;5.728;2023-06-26T14:54:15;22.60;99.90
54642;DHT22;40536;53.194;5.728;2023-06-26T14:56:41;22.70;99.90
54642;DHT22;40536;53.194;5.728;2023-06-26T14:59:11;22.60;99.90
54642;DHT22;40536;53.194;5.728;2023-06-26T15:01:38;22.60;99.90
54642;DHT22;40536;53.194;5.728;2023-06-26T15:04:05;22.50;99.90
54642;DHT22;40536;53.194;5.728;2023-06-26T15:06:30;22.20;99.90
54642;DHT22;40536;53.194;5.728;2023-06-26T15:08:56;22.10;99.90
54642;DHT22;40536;53.194;5.728;2023-06-26T15:11:22;22.20;99.90
54642;DHT22;40536;53.194;5.728;2023-06-26T15:13:47;22.30;99.90
54642;DHT22;40536;53.194;5.728;2023-06-26T15:16:13;22.30;99.90
54642;DHT22;40536;53.194;5.728;2023-06-26T15:18:40;22.30;99.90
54642;DHT22;40536;53.194;5.728;2023-06-26T15:21:05;22.30;99.90
54642;DHT22;40536;53.194;5.728;2023-06-26T15:23:31;22.30;99.90
54642;DHT22;40536;53.194;5.728;2023-06-26T15:25:57;22.20;99.90
54642;DHT22;40536;53.194;5.728;2023-06-26T15:28:22;22.30;99.90
54642;DHT22;40536;53.194;5.728;2023-06-26T15:30:48;22.10;99.90
54642;DHT22;40536;53.194;5.728;2023-06-26T15:33:14;21.90;99.90
54642;DHT22;40536;53.194;5.728;2023-06-26T15:35:40;21.80;99.90
54642;DHT22;40536;53.194;5.728;2023-06-26T15:38:06;21.60;99.90